createdAt,value
2023-06-20T00:00:41.469Z,65.35
2023-06-20T00:03:44.311Z,56.50
2023-06-20T00:06:13.239Z,52.22
2023-06-20T00:08:42.043Z,53.36
2023-06-20T00:11:10.909Z,54.75
2023-06-20T00:13:43.951Z,56.12
2023-06-20T00:16:13.481Z,57.36
2023-06-20T00:18:42.537Z,62.70
2023-06-20T00:21:11.385Z,66.53
2023-06-20T00:23:43.594Z,59.45
2023-06-20T00:26:12.381Z,54.48
2023-06-20T00:28:41.498Z,55.30
2023-06-20T00:31:10.322Z,57.02
2023-06-20T00:33:39.148Z,58.75
2023-06-20T00:36:08.177Z,64.37
2023-06-20T00:38:37.034Z,66.92
2023-06-20T00:41:05.855Z,63.05
2023-06-20T00:43:34.675Z,57.06
2023-06-20T00:46:03.559Z,53.01
2023-06-20T00:48:32.531Z,54.03
2023-06-20T00:51:01.378Z,55.44
2023-06-20T00:53:30.217Z,57.17
2023-06-20T00:56:00.040Z,62.52
2023-06-20T00:58:28.921Z,66.22
2023-06-20T01:00:57.843Z,59.29
2023-06-20T01:03:26.988Z,54.60
2023-06-20T01:06:16.253Z,55.14
2023-06-20T01:08:47.701Z,56.08
2023-06-20T01:11:30.866Z,58.61
2023-06-20T01:13:59.665Z,64.83
2023-06-20T01:16:47.220Z,67.79
2023-06-20T01:19:31.346Z,65.13
2023-06-20T01:22:01.484Z,56.51
2023-06-20T01:24:45.583Z,52.90
2023-06-20T01:27:25.310Z,53.81
2023-06-20T01:29:56.007Z,55.35
2023-06-20T01:32:25.682Z,57.31
2023-06-20T01:35:02.298Z,58.55
2023-06-20T01:37:34.270Z,64.51
2023-06-20T01:40:03.894Z,66.86
2023-06-20T01:42:33.551Z,63.94
2023-06-20T01:45:03.418Z,56.89
2023-06-20T01:47:33.457Z,53.35
2023-06-20T01:50:03.366Z,54.53
2023-06-20T01:52:33.800Z,56.11
2023-06-20T01:55:05.537Z,57.47
2023-06-20T01:57:35.447Z,62.86
2023-06-20T02:00:09.838Z,66.44
2023-06-20T02:02:38.980Z,60.10
2023-06-20T02:05:08.975Z,55.14
2023-06-20T02:07:38.301Z,55.71
2023-06-20T02:10:07.353Z,57.36
2023-06-20T02:12:36.527Z,58.91
2023-06-20T02:15:05.842Z,64.39
2023-06-20T02:17:35.326Z,67.32
2023-06-20T02:20:05.979Z,64.76
2023-06-20T02:22:36.901Z,57.38
2023-06-20T02:25:07.682Z,54.13
2023-06-20T02:27:38.769Z,55.34
2023-06-20T02:30:11.396Z,57.28
2023-06-20T02:32:42.177Z,62.61
2023-06-20T02:35:13.073Z,65.17
2023-06-20T02:37:42.797Z,58.73
2023-06-20T02:40:11.957Z,54.80
2023-06-20T02:42:41.624Z,55.92
2023-06-20T02:45:12.416Z,57.68
2023-06-20T02:48:00.585Z,62.21
2023-06-20T02:50:42.519Z,65.32
2023-06-20T02:53:11.956Z,64.39
2023-06-20T02:55:41.083Z,58.47
2023-06-20T02:58:12.854Z,55.05
2023-06-20T03:00:44.510Z,55.77
2023-06-20T03:03:15.474Z,57.57
2023-06-20T03:05:44.708Z,62.24
2023-06-20T03:08:14.668Z,65.29
2023-06-20T03:10:43.978Z,64.04
2023-06-20T03:13:16.239Z,58.27
2023-06-20T03:15:45.113Z,54.80
2023-06-20T03:18:14.071Z,56.13
2023-06-20T03:20:44.979Z,57.63
2023-06-20T03:23:14.659Z,62.38
2023-06-20T03:25:46.921Z,65.19
2023-06-20T03:28:24.707Z,63.83
2023-06-20T03:31:16.656Z,57.78
2023-06-20T03:33:47.403Z,54.62
2023-06-20T03:36:17.039Z,56.00
2023-06-20T03:38:46.067Z,57.79
2023-06-20T03:41:15.092Z,62.89
2023-06-20T03:43:44.385Z,65.83
2023-06-20T03:46:14.199Z,64.08
2023-06-20T03:48:43.078Z,59.25
2023-06-20T03:51:12.116Z,55.68
2023-06-20T03:53:40.996Z,56.71
2023-06-20T03:56:09.848Z,58.37
2023-06-20T03:58:40.368Z,63.21
2023-06-20T04:01:10.289Z,66.21
2023-06-20T04:03:39.305Z,64.37
2023-06-20T04:06:08.181Z,59.21
2023-06-20T04:08:37.778Z,55.93
2023-06-20T04:11:07.582Z,56.68
2023-06-20T04:13:36.418Z,58.21
2023-06-20T04:16:05.266Z,63.05
2023-06-20T04:18:34.115Z,65.22
2023-06-20T04:21:03.711Z,63.17
2023-06-20T04:23:32.735Z,58.52
2023-06-20T04:26:03.111Z,55.78
2023-06-20T04:28:31.927Z,56.75
2023-06-20T04:31:01.440Z,58.51
2023-06-20T04:33:30.263Z,63.14
2023-06-20T04:35:59.098Z,65.23
2023-06-20T04:38:30.117Z,63.71
2023-06-20T04:41:01.973Z,59.13
2023-06-20T04:43:31.291Z,56.06
2023-06-20T04:46:00.313Z,57.25
2023-06-20T04:48:30.359Z,61.45
2023-06-20T04:50:59.545Z,64.45
2023-06-20T04:53:28.620Z,62.98
2023-06-20T04:55:57.575Z,57.73
2023-06-20T04:58:29.472Z,54.88
2023-06-20T05:01:01.421Z,55.35
2023-06-20T05:03:30.358Z,56.56
2023-06-20T05:05:59.419Z,58.19
2023-06-20T05:08:28.380Z,63.18
2023-06-20T05:10:57.187Z,65.47
2023-06-20T05:13:26.024Z,64.72
2023-06-20T05:15:54.931Z,58.65
2023-06-20T05:18:23.827Z,54.68
2023-06-20T05:20:54.479Z,55.18
2023-06-20T05:23:25.049Z,56.52
2023-06-20T05:25:54.348Z,57.80
2023-06-20T05:28:23.244Z,58.64
2023-06-20T05:30:52.206Z,63.51
2023-06-20T05:33:21.181Z,65.82
2023-06-20T05:35:50.139Z,60.34
2023-06-20T05:38:18.935Z,55.20
2023-06-20T05:40:47.793Z,55.00
2023-06-20T05:43:16.664Z,55.72
2023-06-20T05:45:45.699Z,56.56
2023-06-20T05:48:14.874Z,57.16
2023-06-20T05:50:44.103Z,57.61
2023-06-20T05:53:12.898Z,58.10
2023-06-20T05:55:43.551Z,58.51
2023-06-20T05:58:12.331Z,62.08
2023-06-20T06:00:41.120Z,59.94
2023-06-20T06:03:10.278Z,56.35
2023-06-20T06:05:40.982Z,55.48
2023-06-20T06:08:10.890Z,56.24
2023-06-20T06:10:40.658Z,56.56
2023-06-20T06:13:11.069Z,56.03
2023-06-20T06:15:43.044Z,56.60
2023-06-20T06:18:20.466Z,57.45
2023-06-20T06:20:49.281Z,57.88
2023-06-20T06:23:18.115Z,58.72
2023-06-20T06:25:47.053Z,58.91
2023-06-20T06:28:16.405Z,59.59
2023-06-20T06:30:45.289Z,58.27
2023-06-20T06:33:14.648Z,59.17
2023-06-20T06:35:43.545Z,58.72
2023-06-20T06:38:13.710Z,59.05
2023-06-20T06:40:43.609Z,58.58
2023-06-20T06:43:12.617Z,59.00
2023-06-20T06:45:42.326Z,58.11
2023-06-20T06:48:11.228Z,57.59
2023-06-20T06:50:40.122Z,58.71
2023-06-20T06:53:09.683Z,57.35
2023-06-20T06:55:38.810Z,56.86
2023-06-20T06:58:07.591Z,56.71
2023-06-20T07:00:36.848Z,56.77
2023-06-20T07:03:07.426Z,57.69
2023-06-20T07:05:36.357Z,57.83
2023-06-20T07:08:05.300Z,57.78
2023-06-20T07:10:34.308Z,57.46
2023-06-20T07:13:07.209Z,58.18
2023-06-20T07:15:36.173Z,57.92
2023-06-20T07:18:05.300Z,54.60
2023-06-20T07:20:34.187Z,55.61
2023-06-20T07:23:03.160Z,54.48
2023-06-20T07:25:32.075Z,52.96
2023-06-20T07:28:00.936Z,53.10
2023-06-20T07:30:29.855Z,53.02
2023-06-20T07:32:58.774Z,50.67
2023-06-20T07:35:28.003Z,51.06
2023-06-20T07:37:57.367Z,49.36
2023-06-20T07:40:26.281Z,49.10
2023-06-20T07:42:55.124Z,48.26
2023-06-20T07:45:24.458Z,48.23
2023-06-20T07:47:53.470Z,46.74
2023-06-20T07:50:22.669Z,46.34
2023-06-20T07:52:51.509Z,47.38
2023-06-20T07:55:29.080Z,48.04
2023-06-20T07:58:00.148Z,47.41
2023-06-20T08:00:29.798Z,49.13
2023-06-20T08:02:58.949Z,49.13
2023-06-20T08:05:28.299Z,47.24
2023-06-20T08:07:57.504Z,45.98
2023-06-20T08:10:26.455Z,46.44
2023-06-20T08:12:55.238Z,45.97
2023-06-20T08:15:24.216Z,45.95
2023-06-20T08:17:53.295Z,46.84
2023-06-20T08:20:22.158Z,46.37
2023-06-20T08:22:50.951Z,48.07
2023-06-20T08:25:19.784Z,47.84
2023-06-20T08:27:52.155Z,46.02
2023-06-20T08:30:25.509Z,46.44
2023-06-20T09:58:15.350Z,19.48
2023-06-20T10:05:49.464Z,18.77
2023-06-20T10:08:37.515Z,18.17
2023-06-20T10:13:38.183Z,17.69
2023-06-20T10:16:06.993Z,17.07
2023-06-20T10:18:37.762Z,17.53
2023-06-20T10:21:07.825Z,14.40
2023-06-20T10:23:38.273Z,14.23
2023-06-20T10:26:12.660Z,14.36
2023-06-20T10:28:42.976Z,14.31
2023-06-20T10:31:13.277Z,13.64
2023-06-20T10:33:46.295Z,12.87
2023-06-20T10:36:17.926Z,12.31
2023-06-20T10:38:53.232Z,12.38
2023-06-20T10:41:26.570Z,12.66
2023-06-20T11:09:22.647Z,12.86
2023-06-20T11:11:53.733Z,11.71
2023-06-20T11:14:24.105Z,13.21
2023-06-20T11:16:55.180Z,13.48
2023-06-20T11:19:36.577Z,12.77
2023-06-20T11:22:09.136Z,12.67
2023-06-20T11:27:15.423Z,13.31
2023-06-20T11:29:47.035Z,14.45
2023-06-20T11:32:16.654Z,14.89
2023-06-20T11:34:54.426Z,14.75
2023-06-20T11:37:25.398Z,14.17
2023-06-20T11:39:54.274Z,14.34
2023-06-20T11:42:23.135Z,14.22
2023-06-20T11:44:52.209Z,14.29
2023-06-20T11:47:21.679Z,15.29
2023-06-20T11:49:50.575Z,15.03
2023-06-20T11:52:28.247Z,14.59
2023-06-20T11:55:00.476Z,14.14
2023-06-20T11:57:30.922Z,14.05
2023-06-20T12:00:00.768Z,14.42
2023-06-20T12:02:30.013Z,14.81
2023-06-20T12:04:59.506Z,14.32
2023-06-20T12:07:28.448Z,14.94
2023-06-20T12:10:06.192Z,15.07
2023-06-20T12:12:35.001Z,15.03
2023-06-20T12:15:04.037Z,15.33
2023-06-20T12:17:32.848Z,14.88
2023-06-20T12:20:01.690Z,15.03
2023-06-20T12:22:31.639Z,14.64
2023-06-20T12:25:01.993Z,15.32
2023-06-20T12:27:30.759Z,15.31
2023-06-20T12:29:59.556Z,15.01
2023-06-20T12:32:28.647Z,14.85
2023-06-20T12:34:57.516Z,14.73
2023-06-20T12:37:28.527Z,15.12
2023-06-20T12:39:58.161Z,14.94
2023-06-20T12:42:27.567Z,15.21
2023-06-20T12:44:56.837Z,15.40
2023-06-20T12:47:28.227Z,15.71
2023-06-20T12:49:58.014Z,15.11
2023-06-20T12:52:28.988Z,15.05
2023-06-20T12:54:59.471Z,15.05
2023-06-20T12:57:29.491Z,15.33
2023-06-20T13:00:02.699Z,15.61
2023-06-20T13:02:32.713Z,16.29
2023-06-20T13:05:02.357Z,17.31
2023-06-20T13:07:31.504Z,17.30
2023-06-20T13:10:00.215Z,18.42
2023-06-20T13:12:31.880Z,17.76
2023-06-20T13:15:07.164Z,17.02
2023-06-20T13:17:38.530Z,17.60
2023-06-20T13:20:07.767Z,17.76
2023-06-20T13:22:37.300Z,17.66
2023-06-20T13:25:06.245Z,18.46
2023-06-20T13:27:35.234Z,18.71
2023-06-20T13:30:04.376Z,18.53
2023-06-20T13:32:33.222Z,19.35
2023-06-20T13:35:04.186Z,20.33
2023-06-20T13:37:36.305Z,21.13
2023-06-20T13:40:08.965Z,20.73
2023-06-20T13:42:42.984Z,20.19
2023-06-20T13:45:19.231Z,20.60
2023-06-20T13:47:48.194Z,21.67
2023-06-20T13:50:17.470Z,23.10
2023-06-20T13:52:48.750Z,22.75
2023-06-20T13:55:18.167Z,22.29
2023-06-20T13:57:47.541Z,21.89
2023-06-20T14:00:16.388Z,21.67
2023-06-20T14:02:46.637Z,21.13
2023-06-20T14:05:19.000Z,21.24
2023-06-20T14:07:49.875Z,21.42
2023-06-20T14:10:18.618Z,21.19
2023-06-20T14:12:49.388Z,22.22
2023-06-20T14:15:18.246Z,21.99
2023-06-20T14:17:47.854Z,21.83
2023-06-20T14:20:17.247Z,22.06
2023-06-20T14:22:46.155Z,21.61
2023-06-20T14:25:16.152Z,22.30
2023-06-20T14:27:45.567Z,21.77
2023-06-20T14:30:15.096Z,23.05
2023-06-20T14:32:43.947Z,22.57
2023-06-20T14:35:12.759Z,21.38
2023-06-20T14:37:41.991Z,21.82
2023-06-20T14:40:11.147Z,21.75
2023-06-20T14:42:39.869Z,21.69
2023-06-20T14:45:10.671Z,21.99
2023-06-20T14:47:40.065Z,22.50
2023-06-20T14:50:09.446Z,22.55
2023-06-20T14:52:38.504Z,21.85
2023-06-20T14:55:07.386Z,21.88
2023-06-20T14:57:36.192Z,22.16
2023-06-20T15:00:06.493Z,22.53
2023-06-20T15:02:35.381Z,23.49
2023-06-20T15:05:04.570Z,24.16
2023-06-20T15:07:33.361Z,23.50
2023-06-20T15:10:02.694Z,24.01
2023-06-20T15:12:32.432Z,24.47
2023-06-20T15:15:01.165Z,24.45
2023-06-20T15:17:30.149Z,24.61
2023-06-20T15:19:59.027Z,24.96
2023-06-20T15:22:27.896Z,25.31
2023-06-20T15:24:57.432Z,24.73
2023-06-20T15:27:26.271Z,24.64
2023-06-20T15:29:55.056Z,25.16
2023-06-20T15:32:23.840Z,25.93
2023-06-20T15:34:52.550Z,25.63
2023-06-20T15:37:21.478Z,25.44
2023-06-20T15:39:50.243Z,25.16
2023-06-20T15:42:19.326Z,26.19
2023-06-20T15:44:48.474Z,25.35
2023-06-20T15:47:17.206Z,25.52
2023-06-20T15:49:45.914Z,26.88
2023-06-20T15:52:14.743Z,27.39
2023-06-20T15:54:43.485Z,26.78
2023-06-20T15:57:12.342Z,26.86
2023-06-20T15:59:41.857Z,26.26
2023-06-20T16:02:12.511Z,27.30
2023-06-20T16:04:41.557Z,26.92
2023-06-20T16:07:10.433Z,26.95
2023-06-20T16:09:39.188Z,26.88
2023-06-20T16:12:09.754Z,27.32
2023-06-20T16:14:39.068Z,27.56
2023-06-20T16:17:08.181Z,28.21
2023-06-20T16:19:37.208Z,28.04
2023-06-20T16:22:06.358Z,28.79
2023-06-20T16:24:35.248Z,29.10
2023-06-20T16:27:04.157Z,28.99
2023-06-20T16:29:32.916Z,29.65
2023-06-20T16:32:02.002Z,29.38
2023-06-20T16:34:30.756Z,29.28
2023-06-20T16:36:59.747Z,30.08
2023-06-20T16:39:32.413Z,30.12
2023-06-20T16:42:02.290Z,30.48
2023-06-20T16:44:31.106Z,31.44
2023-06-20T16:47:00.203Z,31.69
2023-06-20T16:49:31.508Z,31.57
2023-06-20T16:52:04.692Z,31.57
2023-06-20T16:54:35.612Z,31.74
2023-06-20T16:57:08.814Z,31.82
2023-06-20T16:59:38.565Z,32.70
2023-06-20T17:02:07.400Z,32.57
2023-06-20T17:04:36.388Z,33.47
2023-06-20T17:07:05.864Z,33.45
2023-06-20T17:09:35.599Z,33.87
2023-06-20T17:12:04.864Z,34.07
2023-06-20T17:14:33.692Z,35.13
2023-06-20T17:17:02.449Z,36.21
2023-06-20T17:19:42.603Z,36.94
2023-06-20T17:22:12.001Z,38.36
2023-06-20T17:24:42.490Z,39.12
2023-06-20T17:27:13.728Z,39.55
2023-06-20T17:29:44.042Z,39.14
2023-06-20T17:32:12.953Z,39.54
2023-06-20T17:34:41.948Z,40.60
2023-06-20T17:37:11.480Z,40.96
2023-06-20T17:39:40.265Z,41.70
2023-06-20T17:42:09.124Z,42.66
2023-06-20T17:44:37.846Z,43.13
2023-06-20T17:47:06.979Z,43.85
2023-06-20T17:49:35.840Z,43.99
2023-06-20T17:52:06.733Z,43.60
2023-06-20T17:54:35.657Z,43.96
2023-06-20T17:57:04.521Z,44.22
2023-06-20T17:59:33.306Z,44.38
2023-06-20T18:02:02.379Z,44.66
2023-06-20T18:04:31.176Z,45.56
2023-06-20T18:06:59.902Z,45.59
2023-06-20T18:09:29.008Z,45.81
2023-06-20T18:11:58.066Z,46.86
2023-06-20T18:14:27.710Z,47.25
2023-06-20T18:16:56.532Z,45.84
2023-06-20T18:19:26.677Z,47.34
